sensor_id;sensor_type;location;lat;lon;timestamp;temperature;humidity
55054;DHT22;40954;45.668;18.980;2022-10-16T08:39:19;435.70;2355.20
55054;DHT22;40954;45.668;18.980;2022-10-16T08:47:22;435.60;2355.20
55054;DHT22;40954;45.668;18.980;2022-10-16T08:49:58;435.70;2355.20
55054;DHT22;40954;45.668;18.980;2022-10-16T08:52:32;435.60;2355.20
55054;DHT22;40954;45.668;18.980;2022-10-16T08:54:59;435.70;2355.20
55054;DHT22;40954;45.668;18.980;2022-10-16T08:57:25;435.80;2355.20
55054;DHT22;40954;45.668;18.980;2022-10-16T09:00:08;435.90;2355.20
55054;DHT22;40954;45.668;18.980;2022-10-16T09:02:49;436.00;2355.20
55054;DHT22;40954;45.668;18.980;2022-10-16T09:11:32;460.80;2380.80
55054;DHT22;40954;45.668;18.980;2022-10-16T09:19:42;461.10;2380.80
55054;DHT22;40954;45.668;18.980;2022-10-16T09:22:15;461.20;2380.80
55054;DHT22;40954;45.668;18.980;2022-10-16T09:24:42;461.30;2380.80
55054;DHT22;40954;45.668;18.980;2022-10-16T09:27:12;461.30;2380.80
55054;DHT22;40954;45.668;18.980;2022-10-16T09:29:39;461.30;2380.80
55054;DHT22;40954;45.668;18.980;2022-10-16T09:32:14;461.40;2380.80
55054;DHT22;40954;45.668;18.980;2022-10-16T09:34:45;461.40;2380.80
55054;DHT22;40954;45.668;18.980;2022-10-16T09:37:16;461.60;2380.80
55054;DHT22;40954;45.668;18.980;2022-10-16T09:39:51;461.60;2380.80
55054;DHT22;40954;45.668;18.980;2022-10-16T09:42:27;461.70;2380.80
55054;DHT22;40954;45.668;18.980;2022-10-16T09:44:56;486.40;2380.80
55054;DHT22;40954;45.668;18.980;2022-10-16T09:47:28;461.70;2380.80
55054;DHT22;40954;45.668;18.980;2022-10-16T09:50:05;486.60;2380.80
55054;DHT22;40954;45.668;18.980;2022-10-16T09:52:44;486.60;2380.80
55054;DHT22;40954;45.668;18.980;2022-10-16T09:55:16;486.70;2380.80
55054;DHT22;40954;45.668;18.980;2022-10-16T09:57:53;486.70;2380.80
55054;DHT22;40954;45.668;18.980;2022-10-16T10:00:19;486.90;2380.80
55054;DHT22;40954;45.668;18.980;2022-10-16T10:02:45;486.90;2380.80
55054;DHT22;40954;45.668;18.980;2022-10-16T14:05:17;1126.50;716.80
55054;DHT22;40954;45.668;18.980;2022-10-16T14:07:43;1101.50;691.20
55054;DHT22;40954;45.668;18.980;2022-10-16T14:10:27;1126.40;716.80
55054;DHT22;40954;45.668;18.980;2022-10-16T14:13:06;1101.70;691.20
55054;DHT22;40954;45.668;18.980;2022-10-16T14:15:34;1101.40;716.80
55054;DHT22;40954;45.668;18.980;2022-10-16T14:42:49;973.10;793.60
55054;DHT22;40954;45.668;18.980;2022-10-16T18:06:23;487.00;2380.80
55054;DHT22;40954;45.668;18.980;2022-10-16T18:08:49;486.70;2380.80
55054;DHT22;40954;45.668;18.980;2022-10-16T18:11:15;486.70;2380.80
55054;DHT22;40954;45.668;18.980;2022-10-16T18:13:41;486.70;2380.80
55054;DHT22;40954;45.668;18.980;2022-10-16T18:16:09;486.60;2380.80
55054;DHT22;40954;45.668;18.980;2022-10-16T18:18:36;486.60;2380.80
55054;DHT22;40954;45.668;18.980;2022-10-16T18:21:04;486.50;2380.80
55054;DHT22;40954;45.668;18.980;2022-10-16T18:23:32;486.50;2380.80
55054;DHT22;40954;45.668;18.980;2022-10-16T18:25:58;486.40;2380.80
55054;DHT22;40954;45.668;18.980;2022-10-16T18:28:24;486.40;2380.80
55054;DHT22;40954;45.668;18.980;2022-10-16T18:31:01;486.40;2380.80
55054;DHT22;40954;45.668;18.980;2022-10-16T18:33:27;486.40;2380.80
55054;DHT22;40954;45.668;18.980;2022-10-16T18:35:55;486.40;2380.80
55054;DHT22;40954;45.668;18.980;2022-10-16T18:38:21;486.40;2380.80
55054;DHT22;40954;45.668;18.980;2022-10-16T18:40:47;461.70;2380.80
55054;DHT22;40954;45.668;18.980;2022-10-16T18:43:13;461.60;2380.80
55054;DHT22;40954;45.668;18.980;2022-10-16T18:45:39;461.60;2380.80
55054;DHT22;40954;45.668;18.980;2022-10-16T18:48:05;461.50;2380.80
55054;DHT22;40954;45.668;18.980;2022-10-16T18:50:32;461.50;2380.80
55054;DHT22;40954;45.668;18.980;2022-10-16T18:52:58;461.50;2380.80
55054;DHT22;40954;45.668;18.980;2022-10-16T18:55:24;461.40;2380.80
55054;DHT22;40954;45.668;18.980;2022-10-16T18:57:50;461.40;2380.80
55054;DHT22;40954;45.668;18.980;2022-10-16T19:00:15;461.30;2380.80
55054;DHT22;40954;45.668;18.980;2022-10-16T19:02:41;461.30;2380.80
55054;DHT22;40954;45.668;18.980;2022-10-16T19:05:07;461.20;2380.80
55054;DHT22;40954;45.668;18.980;2022-10-16T19:07:34;461.20;2380.80
55054;DHT22;40954;45.668;18.980;2022-10-16T19:12:26;461.10;2380.80
55054;DHT22;40954;45.668;18.980;2022-10-16T19:14:51;461.00;2380.80
55054;DHT22;40954;45.668;18.980;2022-10-16T19:17:17;461.00;2380.80
55054;DHT22;40954;45.668;18.980;2022-10-16T19:19:43;461.00;2380.80
55054;DHT22;40954;45.668;18.980;2022-10-16T19:22:08;460.90;2380.80
55054;DHT22;40954;45.668;18.980;2022-10-16T19:24:52;461.00;2380.80
55054;DHT22;40954;45.668;18.980;2022-10-16T19:27:19;460.80;2380.80
55054;DHT22;40954;45.668;18.980;2022-10-16T19:29:44;436.10;2355.20
55054;DHT22;40954;45.668;18.980;2022-10-16T19:32:10;436.10;2355.20
55054;DHT22;40954;45.668;18.980;2022-10-16T19:34:36;436.10;2355.20
55054;DHT22;40954;45.668;18.980;2022-10-16T19:37:01;436.00;2355.20
55054;DHT22;40954;45.668;18.980;2022-10-16T19:39:27;436.00;2355.20
55054;DHT22;40954;45.668;18.980;2022-10-16T19:41:53;435.90;2355.20
55054;DHT22;40954;45.668;18.980;2022-10-16T19:44:18;435.90;2355.20
55054;DHT22;40954;45.668;18.980;2022-10-16T19:46:45;435.90;2355.20
55054;DHT22;40954;45.668;18.980;2022-10-16T19:49:14;435.80;2355.20
55054;DHT22;40954;45.668;18.980;2022-10-16T19:51:45;435.80;2355.20
55054;DHT22;40954;45.668;18.980;2022-10-16T19:54:12;435.70;2355.20
55054;DHT22;40954;45.668;18.980;2022-10-16T19:56:39;435.80;2355.20
55054;DHT22;40954;45.668;18.980;2022-10-16T19:59:06;435.70;2355.20
55054;DHT22;40954;45.668;18.980;2022-10-16T20:01:33;435.60;2355.20
55054;DHT22;40954;45.668;18.980;2022-10-16T20:03:59;435.60;2355.20
55054;DHT22;40954;45.668;18.980;2022-10-16T20:06:25;435.70;2355.20
55054;DHT22;40954;45.668;18.980;2022-10-16T20:08:52;435.50;2355.20
55054;DHT22;40954;45.668;18.980;2022-10-16T20:11:21;435.50;2355.20
55054;DHT22;40954;45.668;18.980;2022-10-16T20:13:47;435.50;2355.20
55054;DHT22;40954;45.668;18.980;2022-10-16T20:16:14;435.40;2355.20
55054;DHT22;40954;45.668;18.980;2022-10-16T20:18:42;435.30;2355.20
55054;DHT22;40954;45.668;18.980;2022-10-16T20:21:09;435.40;2355.20
55054;DHT22;40954;45.668;18.980;2022-10-16T20:23:35;435.40;2355.20
55054;DHT22;40954;45.668;18.980;2022-10-16T20:26:01;435.40;2355.20
55054;DHT22;40954;45.668;18.980;2022-10-16T20:28:27;435.30;2355.20
55054;DHT22;40954;45.668;18.980;2022-10-16T20:30:52;435.30;2355.20
55054;DHT22;40954;45.668;18.980;2022-10-16T20:33:18;435.20;2355.20
55054;DHT22;40954;45.668;18.980;2022-10-16T20:35:46;435.20;2355.20
55054;DHT22;40954;45.668;18.980;2022-10-16T20:38:13;410.50;2355.20
55054;DHT22;40954;45.668;18.980;2022-10-16T20:40:41;410.50;2355.20
55054;DHT22;40954;45.668;18.980;2022-10-16T20:43:11;410.40;2355.20
55054;DHT22;40954;45.668;18.980;2022-10-16T20:45:37;410.40;2355.20
55054;DHT22;40954;45.668;18.980;2022-10-16T20:48:03;410.40;2355.20
55054;DHT22;40954;45.668;18.980;2022-10-16T20:50:29;410.40;2355.20
55054;DHT22;40954;45.668;18.980;2022-10-16T20:52:55;410.30;2355.20
55054;DHT22;40954;45.668;18.980;2022-10-16T20:55:21;410.30;2355.20
55054;DHT22;40954;45.668;18.980;2022-10-16T20:57:47;410.30;2355.20
55054;DHT22;40954;45.668;18.980;2022-10-16T21:00:13;410.20;2355.20
55054;DHT22;40954;45.668;18.980;2022-10-16T21:02:39;410.20;2355.20
55054;DHT22;40954;45.668;18.980;2022-10-16T21:05:05;410.20;2355.20
55054;DHT22;40954;45.668;18.980;2022-10-16T21:07:31;410.20;2355.20
55054;DHT22;40954;45.668;18.980;2022-10-16T21:09:57;410.20;2355.20
55054;DHT22;40954;45.668;18.980;2022-10-16T21:12:23;410.10;2355.20
55054;DHT22;40954;45.668;18.980;2022-10-16T21:14:50;410.10;2355.20
55054;DHT22;40954;45.668;18.980;2022-10-16T21:17:15;410.10;2355.20
55054;DHT22;40954;45.668;18.980;2022-10-16T21:19:41;410.00;2355.20
55054;DHT22;40954;45.668;18.980;2022-10-16T21:22:07;410.00;2355.20
55054;DHT22;40954;45.668;18.980;2022-10-16T21:24:33;409.90;2355.20
55054;DHT22;40954;45.668;18.980;2022-10-16T21:26:59;409.80;2355.20
55054;DHT22;40954;45.668;18.980;2022-10-16T21:29:24;409.80;2355.20
55054;DHT22;40954;45.668;18.980;2022-10-16T21:31:50;409.80;2355.20
55054;DHT22;40954;45.668;18.980;2022-10-16T21:34:16;409.80;2355.20
55054;DHT22;40954;45.668;18.980;2022-10-16T21:36:42;409.80;2355.20
55054;DHT22;40954;45.668;18.980;2022-10-16T21:51:30;410.20;2355.20
55054;DHT22;40954;45.668;18.980;2022-10-16T21:53:58;409.80;2355.20
55054;DHT22;40954;45.668;18.980;2022-10-16T21:56:25;409.80;2355.20
55054;DHT22;40954;45.668;18.980;2022-10-16T21:58:50;409.60;2355.20
55054;DHT22;40954;45.668;18.980;2022-10-16T22:01:19;409.60;2355.20
55054;DHT22;40954;45.668;18.980;2022-10-16T22:03:45;409.60;2355.20
55054;DHT22;40954;45.668;18.980;2022-10-16T22:06:13;409.60;2355.20
55054;DHT22;40954;45.668;18.980;2022-10-16T22:08:39;384.80;2329.60
55054;DHT22;40954;45.668;18.980;2022-10-16T22:23:18;409.80;2355.20
55054;DHT22;40954;45.668;18.980;2022-10-16T22:25:44;409.60;2355.20
55054;DHT22;40954;45.668;18.980;2022-10-16T22:28:10;384.80;2329.60
55054;DHT22;40954;45.668;18.980;2022-10-16T22:35:29;409.70;2355.20
55054;DHT22;40954;45.668;18.980;2022-10-16T22:37:55;384.80;2329.60
55054;DHT22;40954;45.668;18.980;2022-10-16T22:40:21;384.70;2329.60
55054;DHT22;40954;45.668;18.980;2022-10-16T22:42:46;384.80;2329.60
55054;DHT22;40954;45.668;18.980;2022-10-16T22:45:12;384.50;2329.60
55054;DHT22;40954;45.668;18.980;2022-10-16T22:47:38;384.40;2329.60
55054;DHT22;40954;45.668;18.980;2022-10-16T22:50:04;384.50;2329.60
55054;DHT22;40954;45.668;18.980;2022-10-16T22:52:33;384.40;2329.60
55054;DHT22;40954;45.668;18.980;2022-10-16T22:54:58;384.30;2329.60
55054;DHT22;40954;45.668;18.980;2022-10-16T22:57:24;384.40;2329.60
55054;DHT22;40954;45.668;18.980;2022-10-16T22:59:50;384.30;2329.60
55054;DHT22;40954;45.668;18.980;2022-10-16T23:02:15;384.30;2329.60
55054;DHT22;40954;45.668;18.980;2022-10-16T23:04:41;384.20;2329.60
55054;DHT22;40954;45.668;18.980;2022-10-16T23:07:07;359.30;2329.60
55054;DHT22;40954;45.668;18.980;2022-10-16T23:09:32;359.20;2329.60
55054;DHT22;40954;45.668;18.980;2022-10-16T23:11:58;359.10;2329.60
55054;DHT22;40954;45.668;18.980;2022-10-16T23:14:24;359.00;2329.60
55054;DHT22;40954;45.668;18.980;2022-10-16T23:16:50;359.00;2329.60
55054;DHT22;40954;45.668;18.980;2022-10-16T23:19:15;358.90;2329.60
55054;DHT22;40954;45.668;18.980;2022-10-16T23:21:41;358.90;2329.60
55054;DHT22;40954;45.668;18.980;2022-10-16T23:24:07;359.00;2329.60
55054;DHT22;40954;45.668;18.980;2022-10-16T23:26:34;358.90;2329.60
55054;DHT22;40954;45.668;18.980;2022-10-16T23:29:00;358.90;2329.60
55054;DHT22;40954;45.668;18.980;2022-10-16T23:31:27;359.10;2329.60
55054;DHT22;40954;45.668;18.980;2022-10-16T23:33:55;358.90;2329.60
55054;DHT22;40954;45.668;18.980;2022-10-16T23:36:21;358.90;2329.60
55054;DHT22;40954;45.668;18.980;2022-10-16T23:38:48;358.70;2329.60
55054;DHT22;40954;45.668;18.980;2022-10-16T23:41:15;358.80;2329.60
55054;DHT22;40954;45.668;18.980;2022-10-16T23:43:41;358.90;2329.60
55054;DHT22;40954;45.668;18.980;2022-10-16T23:46:08;358.70;2329.60
55054;DHT22;40954;45.668;18.980;2022-10-16T23:48:34;358.70;2329.60
55054;DHT22;40954;45.668;18.980;2022-10-16T23:51:00;358.70;2329.60
55054;DHT22;40954;45.668;18.980;2022-10-16T23:53:26;358.70;2329.60
55054;DHT22;40954;45.668;18.980;2022-10-16T23:55:51;358.60;2329.60
55054;DHT22;40954;45.668;18.980;2022-10-16T23:58:17;358.60;2329.60
